TimeCST,TemperatureF,Dew PointF,Humidity,Sea Level PressureIn,VisibilityMPH,Wind Direction,Wind SpeedMPH,Gust SpeedMPH,PrecipitationIn,Events,Conditions,WindDirDegrees,DateUTC
12:05 AM,32.0,30.2,93,29.84,2.5,ESE,13.8,-,0.00,Rain,Light Freezing Rain,120,2013-02-22 06:05:00
12:54 AM,32.0,30.9,96,29.86,2.5,SE,9.2,-,0.00,Rain,Light Freezing Rain,140,2013-02-22 06:54:00
1:54 AM,32.0,30.0,92,29.86,3.0,SSE,9.2,-,0.00,Rain,Light Freezing Rain,150,2013-02-22 07:54:00
2:20 AM,32.0,30.2,93,29.84,2.5,SSE,9.2,-,0.00,Rain,Light Freezing Rain,150,2013-02-22 08:20:00
2:31 AM,32.0,30.2,93,29.83,3.0,SSE,9.2,-,0.00,Rain,Light Freezing Rain,150,2013-02-22 08:31:00
2:54 AM,32.0,30.9,96,29.83,2.0,SE,5.8,-,0.00,Snow,Light Snow,140,2013-02-22 08:54:00
3:54 AM,32.0,30.9,96,29.82,2.5,SSE,5.8,-,0.00,Snow,Light Snow,150,2013-02-22 09:54:00
4:09 AM,32.0,30.2,93,29.80,4.0,SSE,6.9,-,0.00,,Overcast,160,2013-02-22 10:09:00
4:54 AM,32.0,30.9,96,29.82,5.0,South,6.9,-,0.00,,Overcast,180,2013-02-22 10:54:00
5:52 AM,33.8,30.2,87,29.81,4.0,South,8.1,-,N/A,,Overcast,190,2013-02-22 11:52:00
5:54 AM,33.1,30.9,92,29.83,4.0,South,8.1,-,N/A,,Overcast,190,2013-02-22 11:54:00
6:51 AM,33.8,30.2,87,29.82,1.8,SSW,10.4,-,N/A,,Overcast,200,2013-02-22 12:51:00
6:52 AM,33.1,30.9,92,29.84,1.8,SSW,11.5,-,N/A,,Overcast,200,2013-02-22 12:52:00
7:54 AM,33.1,30.9,92,29.86,1.8,SSW,13.8,-,N/A,,Overcast,210,2013-02-22 13:54:00
8:33 AM,33.8,30.2,87,29.85,2.5,SSW,13.8,-,0.01,,Overcast,210,2013-02-22 14:33:00
8:43 AM,33.8,30.2,87,29.86,4.0,SW,13.8,-,0.01,,Overcast,230,2013-02-22 14:43:00
8:52 AM,33.8,30.2,87,29.86,5.0,SW,11.5,-,0.02,,Overcast,220,2013-02-22 14:52:00
8:54 AM,33.1,30.9,92,29.88,5.0,SW,12.7,-,0.02,,Overcast,220,2013-02-22 14:54:00
9:54 AM,34.0,30.9,89,29.89,8.0,SW,13.8,-,0.06,,Overcast,230,2013-02-22 15:54:00
10:32 AM,35.6,30.2,81,29.88,9.0,SSW,15.0,-,0.07,,Overcast,210,2013-02-22 16:32:00
10:39 AM,35.6,30.2,81,29.88,9.0,SW,16.1,-,0.08,,Overcast,220,2013-02-22 16:39:00
10:54 AM,35.1,30.9,85,29.90,10.0,SW,15.0,-,0.11,,Overcast,220,2013-02-22 16:54:00
12:54 PM,35.1,30.0,82,29.92,10.0,SW,16.1,-,0.03,,Overcast,230,2013-02-22 18:54:00
1:28 PM,33.8,30.2,87,29.90,10.0,WSW,12.7,-,N/A,,Overcast,240,2013-02-22 19:28:00
1:54 PM,35.1,30.0,82,29.92,10.0,WSW,11.5,-,N/A,,Overcast,240,2013-02-22 19:54:00
2:04 PM,35.6,30.2,81,29.90,10.0,West,10.4,18.4,N/A,,Overcast,260,2013-02-22 20:04:00
2:41 PM,33.8,28.4,81,29.92,10.0,WSW,15.0,21.9,N/A,,Overcast,250,2013-02-22 20:41:00
2:54 PM,34.0,28.0,79,29.94,10.0,West,11.5,19.6,N/A,,Overcast,260,2013-02-22 20:54:00
3:54 PM,33.1,26.1,75,29.95,10.0,WSW,15.0,23.0,N/A,,Overcast,250,2013-02-22 21:54:00
4:54 PM,32.0,23.0,69,29.97,10.0,West,13.8,24.2,N/A,,Overcast,260,2013-02-22 22:54:00
5:54 PM,30.0,21.0,69,30.00,10.0,West,12.7,23.0,N/A,,Overcast,270,2013-02-22 23:54:00
6:52 PM,28.4,19.4,69,30.00,10.0,West,11.5,-,N/A,,Overcast,280,2013-02-23 00:52:00
6:54 PM,28.9,19.9,69,30.02,10.0,West,12.7,-,N/A,,Overcast,280,2013-02-23 00:54:00
7:54 PM,28.0,19.9,72,30.03,10.0,West,9.2,18.4,N/A,,Overcast,280,2013-02-23 01:54:00
8:54 PM,28.0,19.0,69,30.03,10.0,West,10.4,-,N/A,,Overcast,260,2013-02-23 02:54:00
9:54 PM,27.0,19.9,75,30.04,10.0,WSW,8.1,-,N/A,,Overcast,240,2013-02-23 03:54:00
10:54 PM,26.1,19.9,78,30.04,10.0,WSW,8.1,-,N/A,,Overcast,240,2013-02-23 04:54:00
11:54 PM,26.1,19.0,75,30.04,10.0,WSW,10.4,-,N/A,,Overcast,240,2013-02-23 05:54:00